Terminal Aerodrome Forecast
Issued by NWS Sioux Falls, SD

Home | Current Version | Previous Version | Text Only | Print | Product List | Glossary On
Versions: 1 2 3 4 5 6 7 8 9 10 11 12 13 14 15 16 17 18 19 20 21 22 23 24 25 26 27 28 29 30 31 32 33 34 35 36 37 38 39 40 41
000
FTUS43 KFSD 112320
TAFSUX
TAF
KSUX 112320Z 1200/1224 15010KT 4SM -SN BKN018
     FM120300 12007KT P6SM SCT008 OVC015
     FM121400 35012KT P6SM SCT060
     FM121800 35012G18KT P6SM SCT200=

USA.gov is the U.S. government's official web portal to all federal, state and local government web resources and services.